Accueil
METAR-TAF:

METAR-TAF

Aéroports :

Aérodrome de Londres Biggin Hill

Londres Biggin Hill, Angleterre

latitude: 51-19N, longitude: 000-02E, altitude: 183 m

Observation

Le bulletin a été fait il y a 1 heure et 23 minutes, à 20:20 UTC
Vent 7 kt de nord-ouest
Température 15°C
Humidité 77%
Pression 1028 hPa
Visibilité 10 km ou plus
Nuages fragmentés à une hauteur de 2300 ft

METAR: EGKB 212020Z 32007KT 9999 BKN023 15/11 Q1028

Heure: 22:43 (21:43 UTC)

Prévision

Le bulletin a été fait il y a 4 heures et 51 minutes, à 16:52 UTC
Prévision valable du 21 à 18 UTC au 21 à 21 UTC
Vent 8 kt de nord-ouest
Visibilité 10 km ou plus
pas de nuages en-dessous de 1500 mètres et pas de cumulonimbus.
Probabilité 30%
du 21 à 20 UTC au 21 à 21 UTC
Nuages fragmentés à une hauteur de 1400 ft

TAF: EGKB 211652Z 2118/2121 32008KT CAVOK PROB30 2120/2121 BKN014

Observations et prévisions météorologiques de plus de 4000 aéroports (messages METAR et TAF).

Les stations disponibles sont représentées par des disques jaunes et rouges sur la carte.

Passer la souris dessus pour voir le nom de la station.

Cliquer dessus pour voir les observations et prévisions météorologiques.

Pour changer de carte: cliquez sur les boutons verts avec une croix noire pour zoomer, sur le bouton vert avec un tiret pour effectuer un zoom arrière, ou sur les flèches vertes pour les cartes adjacentes.


METAR-TAF: